sensor_id;sensor_type;location;lat;lon;timestamp;P1;durP1;ratioP1;P2;durP2;ratioP2
69569;SDS011;56781;42.292;23.146;2022-12-01T00:01:16;3.63;;;1.20;;
69569;SDS011;56781;42.292;23.146;2022-12-01T00:03:44;8.02;;;1.45;;
69569;SDS011;56781;42.292;23.146;2022-12-01T00:06:12;4.13;;;0.97;;
69569;SDS011;56781;42.292;23.146;2022-12-01T00:08:44;5.63;;;1.58;;
69569;SDS011;56781;42.292;23.146;2022-12-01T00:11:31;5.68;;;1.65;;
69569;SDS011;56781;42.292;23.146;2022-12-01T00:13:59;5.28;;;1.60;;
69569;SDS011;56781;42.292;23.146;2022-12-01T00:16:26;3.85;;;1.10;;
69569;SDS011;56781;42.292;23.146;2022-12-01T00:18:54;6.63;;;1.90;;
69569;SDS011;56781;42.292;23.146;2022-12-01T00:21:21;12.18;;;1.35;;
69569;SDS011;56781;42.292;23.146;2022-12-01T00:23:50;3.35;;;1.10;;
69569;SDS011;56781;42.292;23.146;2022-12-01T00:26:19;3.55;;;1.30;;
69569;SDS011;56781;42.292;23.146;2022-12-01T00:28:48;3.50;;;0.88;;
69569;SDS011;56781;42.292;23.146;2022-12-01T00:31:19;6.23;;;1.33;;
69569;SDS011;56781;42.292;23.146;2022-12-01T00:33:47;5.68;;;1.40;;
69569;SDS011;56781;42.292;23.146;2022-12-01T00:36:14;4.75;;;1.20;;
69569;SDS011;56781;42.292;23.146;2022-12-01T00:38:41;4.82;;;1.30;;
69569;SDS011;56781;42.292;23.146;2022-12-01T00:41:08;7.90;;;2.28;;
69569;SDS011;56781;42.292;23.146;2022-12-01T00:43:35;10.67;;;2.60;;
69569;SDS011;56781;42.292;23.146;2022-12-01T00:46:02;10.65;;;2.65;;
69569;SDS011;56781;42.292;23.146;2022-12-01T00:48:29;12.95;;;2.58;;
69569;SDS011;56781;42.292;23.146;2022-12-01T00:50:56;9.57;;;2.20;;
69569;SDS011;56781;42.292;23.146;2022-12-01T00:53:23;5.95;;;1.60;;
69569;SDS011;56781;42.292;23.146;2022-12-01T00:55:50;5.33;;;1.70;;
69569;SDS011;56781;42.292;23.146;2022-12-01T00:58:21;5.15;;;1.30;;
69569;SDS011;56781;42.292;23.146;2022-12-01T01:00:55;13.95;;;2.90;;
69569;SDS011;56781;42.292;23.146;2022-12-01T01:03:24;7.50;;;2.10;;
69569;SDS011;56781;42.292;23.146;2022-12-01T01:05:52;7.30;;;1.67;;
69569;SDS011;56781;42.292;23.146;2022-12-01T01:08:19;11.33;;;2.37;;
69569;SDS011;56781;42.292;23.146;2022-12-01T01:10:47;9.02;;;2.22;;
69569;SDS011;56781;42.292;23.146;2022-12-01T01:13:15;22.88;;;4.90;;
69569;SDS011;56781;42.292;23.146;2022-12-01T01:15:42;17.02;;;4.63;;
69569;SDS011;56781;42.292;23.146;2022-12-01T01:18:09;10.80;;;2.67;;
69569;SDS011;56781;42.292;23.146;2022-12-01T01:20:37;4.80;;;1.13;;
69569;SDS011;56781;42.292;23.146;2022-12-01T01:23:04;8.05;;;1.75;;
69569;SDS011;56781;42.292;23.146;2022-12-01T01:25:31;12.68;;;2.58;;
69569;SDS011;56781;42.292;23.146;2022-12-01T01:27:59;12.77;;;2.95;;
69569;SDS011;56781;42.292;23.146;2022-12-01T01:30:26;3.83;;;0.98;;
69569;SDS011;56781;42.292;23.146;2022-12-01T01:32:53;2.67;;;0.80;;
69569;SDS011;56781;42.292;23.146;2022-12-01T01:35:20;4.50;;;1.15;;
69569;SDS011;56781;42.292;23.146;2022-12-01T01:37:47;2.88;;;0.80;;
69569;SDS011;56781;42.292;23.146;2022-12-01T01:40:16;3.55;;;1.02;;
69569;SDS011;56781;42.292;23.146;2022-12-01T01:42:43;2.80;;;0.77;;
69569;SDS011;56781;42.292;23.146;2022-12-01T01:45:16;3.40;;;1.20;;
69569;SDS011;56781;42.292;23.146;2022-12-01T01:47:50;4.80;;;1.20;;
69569;SDS011;56781;42.292;23.146;2022-12-01T01:50:20;2.38;;;0.73;;
69569;SDS011;56781;42.292;23.146;2022-12-01T01:52:50;3.72;;;0.98;;
69569;SDS011;56781;42.292;23.146;2022-12-01T01:55:23;6.70;;;1.77;;
69569;SDS011;56781;42.292;23.146;2022-12-01T01:57:51;3.43;;;1.13;;
69569;SDS011;56781;42.292;23.146;2022-12-01T02:00:19;3.88;;;0.95;;
69569;SDS011;56781;42.292;23.146;2022-12-01T02:02:47;4.88;;;1.25;;
69569;SDS011;56781;42.292;23.146;2022-12-01T02:05:23;4.53;;;1.35;;
69569;SDS011;56781;42.292;23.146;2022-12-01T02:07:52;2.65;;;0.68;;
69569;SDS011;56781;42.292;23.146;2022-12-01T02:10:23;2.57;;;0.63;;
69569;SDS011;56781;42.292;23.146;2022-12-01T02:13:14;4.60;;;1.38;;
69569;SDS011;56781;42.292;23.146;2022-12-01T02:15:55;2.97;;;0.98;;
69569;SDS011;56781;42.292;23.146;2022-12-01T02:18:44;3.00;;;0.90;;
69569;SDS011;56781;42.292;23.146;2022-12-01T02:38:34;2.13;;;0.60;;
69569;SDS011;56781;42.292;23.146;2022-12-01T02:41:14;2.15;;;0.50;;
69569;SDS011;56781;42.292;23.146;2022-12-01T02:43:52;2.78;;;0.77;;
69569;SDS011;56781;42.292;23.146;2022-12-01T02:46:31;2.35;;;0.73;;
69569;SDS011;56781;42.292;23.146;2022-12-01T02:49:03;1.92;;;0.60;;
69569;SDS011;56781;42.292;23.146;2022-12-01T02:51:36;2.50;;;0.90;;
69569;SDS011;56781;42.292;23.146;2022-12-01T02:54:05;1.38;;;0.32;;
69569;SDS011;56781;42.292;23.146;2022-12-01T02:56:33;1.67;;;0.47;;
69569;SDS011;56781;42.292;23.146;2022-12-01T02:59:01;1.98;;;0.60;;
69569;SDS011;56781;42.292;23.146;2022-12-01T03:01:30;1.85;;;0.65;;
69569;SDS011;56781;42.292;23.146;2022-12-01T03:04:23;1.63;;;0.60;;
69569;SDS011;56781;42.292;23.146;2022-12-01T03:15:00;1.60;;;0.57;;
69569;SDS011;56781;42.292;23.146;2022-12-01T03:17:47;0.93;;;0.30;;
69569;SDS011;56781;42.292;23.146;2022-12-01T03:20:23;1.10;;;0.47;;
69569;SDS011;56781;42.292;23.146;2022-12-01T03:23:04;2.80;;;0.80;;
69569;SDS011;56781;42.292;23.146;2022-12-01T03:25:38;3.22;;;0.95;;
69569;SDS011;56781;42.292;23.146;2022-12-01T03:28:09;4.40;;;1.00;;
69569;SDS011;56781;42.292;23.146;2022-12-01T03:30:46;2.27;;;0.60;;
69569;SDS011;56781;42.292;23.146;2022-12-01T03:33:20;1.92;;;0.73;;
69569;SDS011;56781;42.292;23.146;2022-12-01T03:35:53;2.85;;;1.10;;
69569;SDS011;56781;42.292;23.146;2022-12-01T03:38:26;1.92;;;0.63;;
69569;SDS011;56781;42.292;23.146;2022-12-01T03:40:59;1.83;;;0.50;;
69569;SDS011;56781;42.292;23.146;2022-12-01T03:43:33;1.50;;;0.40;;
69569;SDS011;56781;42.292;23.146;2022-12-01T03:46:09;1.95;;;0.60;;
69569;SDS011;56781;42.292;23.146;2022-12-01T03:48:44;0.98;;;0.30;;
69569;SDS011;56781;42.292;23.146;2022-12-01T03:53:56;1.88;;;0.55;;
69569;SDS011;56781;42.292;23.146;2022-12-01T03:56:36;1.00;;;0.30;;
69569;SDS011;56781;42.292;23.146;2022-12-01T03:59:10;1.55;;;0.47;;
69569;SDS011;56781;42.292;23.146;2022-12-01T04:01:38;2.42;;;0.70;;
69569;SDS011;56781;42.292;23.146;2022-12-01T04:04:09;1.17;;;0.40;;
69569;SDS011;56781;42.292;23.146;2022-12-01T04:06:38;1.70;;;0.60;;
69569;SDS011;56781;42.292;23.146;2022-12-01T04:09:07;1.87;;;0.60;;
69569;SDS011;56781;42.292;23.146;2022-12-01T04:11:35;2.60;;;0.73;;
69569;SDS011;56781;42.292;23.146;2022-12-01T04:14:20;1.25;;;0.40;;
69569;SDS011;56781;42.292;23.146;2022-12-01T04:16:47;1.13;;;0.32;;
69569;SDS011;56781;42.292;23.146;2022-12-01T04:19:14;1.13;;;0.30;;
69569;SDS011;56781;42.292;23.146;2022-12-01T04:21:42;1.10;;;0.30;;
69569;SDS011;56781;42.292;23.146;2022-12-01T04:24:10;1.13;;;0.40;;
69569;SDS011;56781;42.292;23.146;2022-12-01T04:26:37;1.25;;;0.30;;
69569;SDS011;56781;42.292;23.146;2022-12-01T04:29:06;2.00;;;0.50;;
69569;SDS011;56781;42.292;23.146;2022-12-01T04:31:35;0.88;;;0.30;;
69569;SDS011;56781;42.292;23.146;2022-12-01T04:34:03;1.10;;;0.40;;
69569;SDS011;56781;42.292;23.146;2022-12-01T04:36:31;1.55;;;0.40;;
69569;SDS011;56781;42.292;23.146;2022-12-01T04:38:59;1.60;;;0.50;;
69569;SDS011;56781;42.292;23.146;2022-12-01T04:41:27;2.67;;;0.60;;
69569;SDS011;56781;42.292;23.146;2022-12-01T04:43:54;2.85;;;0.85;;
69569;SDS011;56781;42.292;23.146;2022-12-01T04:46:22;2.93;;;0.90;;
69569;SDS011;56781;42.292;23.146;2022-12-01T04:48:50;1.63;;;0.60;;
69569;SDS011;56781;42.292;23.146;2022-12-01T04:51:17;1.30;;;0.40;;
69569;SDS011;56781;42.292;23.146;2022-12-01T04:53:44;2.28;;;0.75;;
69569;SDS011;56781;42.292;23.146;2022-12-01T04:56:11;1.00;;;0.40;;
69569;SDS011;56781;42.292;23.146;2022-12-01T04:58:38;2.13;;;0.63;;
69569;SDS011;56781;42.292;23.146;2022-12-01T05:01:07;1.38;;;0.40;;
69569;SDS011;56781;42.292;23.146;2022-12-01T05:03:37;2.70;;;0.80;;
69569;SDS011;56781;42.292;23.146;2022-12-01T05:06:06;2.75;;;1.08;;
69569;SDS011;56781;42.292;23.146;2022-12-01T05:08:38;1.73;;;0.47;;
69569;SDS011;56781;42.292;23.146;2022-12-01T05:11:06;1.63;;;0.67;;
69569;SDS011;56781;42.292;23.146;2022-12-01T05:13:35;11.27;;;3.38;;
69569;SDS011;56781;42.292;23.146;2022-12-01T05:16:04;7.07;;;1.80;;
69569;SDS011;56781;42.292;23.146;2022-12-01T05:18:39;8.25;;;1.83;;
69569;SDS011;56781;42.292;23.146;2022-12-01T05:21:07;6.95;;;2.13;;
69569;SDS011;56781;42.292;23.146;2022-12-01T05:23:36;9.33;;;2.87;;
69569;SDS011;56781;42.292;23.146;2022-12-01T05:26:04;10.63;;;2.58;;
69569;SDS011;56781;42.292;23.146;2022-12-01T05:28:32;13.30;;;2.72;;
69569;SDS011;56781;42.292;23.146;2022-12-01T05:31:00;14.73;;;4.40;;
69569;SDS011;56781;42.292;23.146;2022-12-01T05:33:28;30.67;;;6.18;;
69569;SDS011;56781;42.292;23.146;2022-12-01T05:35:55;14.13;;;3.17;;
69569;SDS011;56781;42.292;23.146;2022-12-01T05:38:22;15.30;;;2.15;;
69569;SDS011;56781;42.292;23.146;2022-12-01T05:40:50;12.75;;;2.55;;
69569;SDS011;56781;42.292;23.146;2022-12-01T05:43:19;18.52;;;3.53;;
69569;SDS011;56781;42.292;23.146;2022-12-01T05:45:54;5.45;;;1.70;;
69569;SDS011;56781;42.292;23.146;2022-12-01T05:48:22;14.17;;;2.70;;
69569;SDS011;56781;42.292;23.146;2022-12-01T05:50:50;9.70;;;2.17;;
69569;SDS011;56781;42.292;23.146;2022-12-01T05:53:18;7.07;;;1.40;;
69569;SDS011;56781;42.292;23.146;2022-12-01T05:55:45;14.05;;;2.65;;
69569;SDS011;56781;42.292;23.146;2022-12-01T05:58:17;11.82;;;2.17;;
69569;SDS011;56781;42.292;23.146;2022-12-01T06:00:45;13.73;;;2.90;;
69569;SDS011;56781;42.292;23.146;2022-12-01T06:03:12;16.30;;;2.22;;
69569;SDS011;56781;42.292;23.146;2022-12-01T06:05:39;11.02;;;2.28;;
69569;SDS011;56781;42.292;23.146;2022-12-01T06:08:07;5.90;;;1.20;;
69569;SDS011;56781;42.292;23.146;2022-12-01T06:10:34;10.88;;;2.38;;
69569;SDS011;56781;42.292;23.146;2022-12-01T06:13:01;18.33;;;4.23;;
69569;SDS011;56781;42.292;23.146;2022-12-01T06:15:28;59.53;;;11.80;;
69569;SDS011;56781;42.292;23.146;2022-12-01T06:17:57;43.38;;;8.00;;
69569;SDS011;56781;42.292;23.146;2022-12-01T06:20:25;34.78;;;8.43;;
69569;SDS011;56781;42.292;23.146;2022-12-01T06:22:52;22.02;;;5.20;;
69569;SDS011;56781;42.292;23.146;2022-12-01T06:25:19;29.67;;;6.73;;
69569;SDS011;56781;42.292;23.146;2022-12-01T06:27:46;25.15;;;5.70;;
69569;SDS011;56781;42.292;23.146;2022-12-01T06:30:14;27.00;;;5.75;;
69569;SDS011;56781;42.292;23.146;2022-12-01T06:32:41;13.43;;;3.53;;
69569;SDS011;56781;42.292;23.146;2022-12-01T06:35:08;18.77;;;3.95;;
69569;SDS011;56781;42.292;23.146;2022-12-01T06:37:35;16.40;;;3.90;;
69569;SDS011;56781;42.292;23.146;2022-12-01T06:40:02;18.75;;;4.15;;
69569;SDS011;56781;42.292;23.146;2022-12-01T06:42:30;12.57;;;2.88;;
69569;SDS011;56781;42.292;23.146;2022-12-01T06:44:57;8.05;;;1.85;;
69569;SDS011;56781;42.292;23.146;2022-12-01T06:47:25;6.43;;;2.08;;
69569;SDS011;56781;42.292;23.146;2022-12-01T06:49:52;7.43;;;2.10;;
69569;SDS011;56781;42.292;23.146;2022-12-01T06:52:19;8.35;;;2.40;;
69569;SDS011;56781;42.292;23.146;2022-12-01T06:54:46;8.90;;;2.10;;
69569;SDS011;56781;42.292;23.146;2022-12-01T06:57:14;6.10;;;2.35;;
69569;SDS011;56781;42.292;23.146;2022-12-01T06:59:41;9.70;;;2.15;;
69569;SDS011;56781;42.292;23.146;2022-12-01T07:02:11;6.00;;;1.50;;
69569;SDS011;56781;42.292;23.146;2022-12-01T07:04:39;5.43;;;2.03;;
69569;SDS011;56781;42.292;23.146;2022-12-01T07:07:06;8.07;;;2.13;;
69569;SDS011;56781;42.292;23.146;2022-12-01T07:09:33;6.63;;;1.63;;
69569;SDS011;56781;42.292;23.146;2022-12-01T07:12:00;8.32;;;2.53;;
69569;SDS011;56781;42.292;23.146;2022-12-01T07:14:27;5.50;;;1.90;;
69569;SDS011;56781;42.292;23.146;2022-12-01T07:16:54;9.00;;;2.90;;
69569;SDS011;56781;42.292;23.146;2022-12-01T07:19:21;6.10;;;2.15;;
69569;SDS011;56781;42.292;23.146;2022-12-01T07:21:48;6.50;;;1.58;;
69569;SDS011;56781;42.292;23.146;2022-12-01T07:24:16;4.43;;;1.48;;
69569;SDS011;56781;42.292;23.146;2022-12-01T07:26:43;5.47;;;1.43;;
69569;SDS011;56781;42.292;23.146;2022-12-01T07:29:11;3.75;;;1.02;;
69569;SDS011;56781;42.292;23.146;2022-12-01T07:31:38;5.53;;;1.90;;
69569;SDS011;56781;42.292;23.146;2022-12-01T07:34:05;6.20;;;1.38;;
69569;SDS011;56781;42.292;23.146;2022-12-01T07:36:32;12.27;;;2.38;;
69569;SDS011;56781;42.292;23.146;2022-12-01T07:39:03;4.13;;;1.43;;
69569;SDS011;56781;42.292;23.146;2022-12-01T07:41:31;6.00;;;1.63;;
69569;SDS011;56781;42.292;23.146;2022-12-01T07:43:59;3.28;;;1.30;;
69569;SDS011;56781;42.292;23.146;2022-12-01T07:46:27;6.75;;;2.25;;
69569;SDS011;56781;42.292;23.146;2022-12-01T07:48:54;4.13;;;1.85;;
69569;SDS011;56781;42.292;23.146;2022-12-01T07:51:23;7.27;;;2.40;;
69569;SDS011;56781;42.292;23.146;2022-12-01T07:53:52;4.78;;;1.90;;
69569;SDS011;56781;42.292;23.146;2022-12-01T07:56:20;3.45;;;1.02;;
69569;SDS011;56781;42.292;23.146;2022-12-01T07:58:48;3.72;;;1.35;;
69569;SDS011;56781;42.292;23.146;2022-12-01T08:01:17;3.42;;;1.13;;
69569;SDS011;56781;42.292;23.146;2022-12-01T08:03:50;9.37;;;2.97;;
69569;SDS011;56781;42.292;23.146;2022-12-01T08:06:18;9.98;;;3.30;;
69569;SDS011;56781;42.292;23.146;2022-12-01T08:08:47;2.53;;;0.95;;
69569;SDS011;56781;42.292;23.146;2022-12-01T08:11:16;6.13;;;1.60;;
69569;SDS011;56781;42.292;23.146;2022-12-01T08:13:47;5.25;;;1.38;;
69569;SDS011;56781;42.292;23.146;2022-12-01T08:16:15;10.77;;;2.40;;
69569;SDS011;56781;42.292;23.146;2022-12-01T08:18:44;8.32;;;2.38;;
69569;SDS011;56781;42.292;23.146;2022-12-01T08:21:12;12.82;;;3.38;;
69569;SDS011;56781;42.292;23.146;2022-12-01T08:23:42;9.00;;;3.30;;
69569;SDS011;56781;42.292;23.146;2022-12-01T08:26:11;6.90;;;2.40;;
69569;SDS011;56781;42.292;23.146;2022-12-01T08:28:42;14.33;;;3.20;;
69569;SDS011;56781;42.292;23.146;2022-12-01T08:31:10;8.98;;;2.28;;
69569;SDS011;56781;42.292;23.146;2022-12-01T08:33:46;12.82;;;3.03;;
69569;SDS011;56781;42.292;23.146;2022-12-01T08:36:14;11.25;;;3.28;;
69569;SDS011;56781;42.292;23.146;2022-12-01T08:38:42;11.25;;;3.47;;
69569;SDS011;56781;42.292;23.146;2022-12-01T08:41:10;6.67;;;1.80;;
69569;SDS011;56781;42.292;23.146;2022-12-01T08:43:39;5.47;;;1.85;;
69569;SDS011;56781;42.292;23.146;2022-12-01T08:46:24;11.25;;;3.10;;
69569;SDS011;56781;42.292;23.146;2022-12-01T08:48:57;8.23;;;3.08;;
69569;SDS011;56781;42.292;23.146;2022-12-01T08:51:24;10.00;;;3.33;;
69569;SDS011;56781;42.292;23.146;2022-12-01T08:53:53;10.57;;;3.60;;
69569;SDS011;56781;42.292;23.146;2022-12-01T08:56:21;7.15;;;2.22;;
69569;SDS011;56781;42.292;23.146;2022-12-01T08:58:57;5.13;;;1.67;;
69569;SDS011;56781;42.292;23.146;2022-12-01T09:01:24;13.93;;;3.65;;
69569;SDS011;56781;42.292;23.146;2022-12-01T09:03:52;19.08;;;3.97;;
69569;SDS011;56781;42.292;23.146;2022-12-01T09:06:40;9.80;;;2.63;;
69569;SDS011;56781;42.292;23.146;2022-12-01T09:09:09;12.63;;;3.08;;
69569;SDS011;56781;42.292;23.146;2022-12-01T09:11:37;12.35;;;3.00;;
69569;SDS011;56781;42.292;23.146;2022-12-01T09:14:05;9.55;;;2.63;;
69569;SDS011;56781;42.292;23.146;2022-12-01T09:16:32;13.45;;;2.92;;
69569;SDS011;56781;42.292;23.146;2022-12-01T09:18:59;8.63;;;2.50;;
69569;SDS011;56781;42.292;23.146;2022-12-01T09:21:27;7.45;;;2.08;;
69569;SDS011;56781;42.292;23.146;2022-12-01T09:23:58;7.18;;;1.98;;
69569;SDS011;56781;42.292;23.146;2022-12-01T09:26:26;9.05;;;2.83;;
69569;SDS011;56781;42.292;23.146;2022-12-01T09:28:54;11.70;;;3.00;;
69569;SDS011;56781;42.292;23.146;2022-12-01T09:31:23;7.23;;;2.30;;
69569;SDS011;56781;42.292;23.146;2022-12-01T09:33:57;6.10;;;1.83;;
69569;SDS011;56781;42.292;23.146;2022-12-01T09:36:29;4.25;;;1.33;;
69569;SDS011;56781;42.292;23.146;2022-12-01T09:38:58;3.15;;;1.00;;
69569;SDS011;56781;42.292;23.146;2022-12-01T09:50:15;8.20;;;1.67;;
69569;SDS011;56781;42.292;23.146;2022-12-01T09:52:51;4.90;;;1.60;;
69569;SDS011;56781;42.292;23.146;2022-12-01T09:55:27;5.95;;;1.63;;
69569;SDS011;56781;42.292;23.146;2022-12-01T09:57:57;3.33;;;1.10;;
69569;SDS011;56781;42.292;23.146;2022-12-01T10:00:26;4.70;;;1.85;;
69569;SDS011;56781;42.292;23.146;2022-12-01T10:03:13;4.43;;;1.38;;
69569;SDS011;56781;42.292;23.146;2022-12-01T10:05:56;5.45;;;1.38;;
69569;SDS011;56781;42.292;23.146;2022-12-01T10:11:42;4.57;;;1.33;;
69569;SDS011;56781;42.292;23.146;2022-12-01T10:14:16;4.97;;;1.20;;
69569;SDS011;56781;42.292;23.146;2022-12-01T10:19:42;5.85;;;1.70;;
69569;SDS011;56781;42.292;23.146;2022-12-01T10:30:49;9.65;;;3.00;;
69569;SDS011;56781;42.292;23.146;2022-12-01T10:33:25;4.43;;;1.50;;
69569;SDS011;56781;42.292;23.146;2022-12-01T10:35:54;3.92;;;1.42;;
69569;SDS011;56781;42.292;23.146;2022-12-01T10:38:33;2.37;;;0.70;;
69569;SDS011;56781;42.292;23.146;2022-12-01T10:41:02;1.45;;;0.40;;
69569;SDS011;56781;42.292;23.146;2022-12-01T10:43:32;3.40;;;0.88;;
69569;SDS011;56781;42.292;23.146;2022-12-01T10:49:07;2.03;;;0.63;;
69569;SDS011;56781;42.292;23.146;2022-12-01T10:51:50;4.40;;;1.50;;
69569;SDS011;56781;42.292;23.146;2022-12-01T10:54:23;3.58;;;1.27;;
69569;SDS011;56781;42.292;23.146;2022-12-01T10:56:57;6.20;;;1.77;;
69569;SDS011;56781;42.292;23.146;2022-12-01T10:59:26;11.70;;;3.20;;
69569;SDS011;56781;42.292;23.146;2022-12-01T11:02:00;11.05;;;3.55;;
69569;SDS011;56781;42.292;23.146;2022-12-01T11:04:37;16.37;;;4.47;;
69569;SDS011;56781;42.292;23.146;2022-12-01T11:07:15;12.55;;;3.35;;
69569;SDS011;56781;42.292;23.146;2022-12-01T11:09:45;10.73;;;2.45;;
69569;SDS011;56781;42.292;23.146;2022-12-01T11:12:20;9.27;;;2.83;;
69569;SDS011;56781;42.292;23.146;2022-12-01T11:14:49;7.13;;;2.30;;
69569;SDS011;56781;42.292;23.146;2022-12-01T11:19:54;7.32;;;2.20;;
69569;SDS011;56781;42.292;23.146;2022-12-01T11:22:29;7.57;;;1.92;;
69569;SDS011;56781;42.292;23.146;2022-12-01T11:27:27;7.75;;;2.63;;
69569;SDS011;56781;42.292;23.146;2022-12-01T11:29:59;4.37;;;1.13;;
69569;SDS011;56781;42.292;23.146;2022-12-01T11:32:31;3.38;;;1.13;;
69569;SDS011;56781;42.292;23.146;2022-12-01T11:37:42;11.65;;;2.38;;
69569;SDS011;56781;42.292;23.146;2022-12-01T11:40:43;10.10;;;2.10;;
69569;SDS011;56781;42.292;23.146;2022-12-01T11:43:13;13.27;;;2.97;;
69569;SDS011;56781;42.292;23.146;2022-12-01T11:45:58;9.50;;;2.28;;
69569;SDS011;56781;42.292;23.146;2022-12-01T11:48:30;5.53;;;1.65;;
69569;SDS011;56781;42.292;23.146;2022-12-01T11:51:05;8.07;;;2.45;;
69569;SDS011;56781;42.292;23.146;2022-12-01T11:53:37;5.13;;;1.83;;
69569;SDS011;56781;42.292;23.146;2022-12-01T11:58:50;4.55;;;1.52;;
69569;SDS011;56781;42.292;23.146;2022-12-01T12:15:33;6.45;;;1.58;;
69569;SDS011;56781;42.292;23.146;2022-12-01T12:37:19;27.13;;;6.10;;
69569;SDS011;56781;42.292;23.146;2022-12-01T12:40:21;13.52;;;3.00;;
69569;SDS011;56781;42.292;23.146;2022-12-01T12:43:38;17.92;;;3.40;;
69569;SDS011;56781;42.292;23.146;2022-12-01T12:46:12;17.67;;;3.75;;
69569;SDS011;56781;42.292;23.146;2022-12-01T12:49:01;15.90;;;3.08;;
69569;SDS011;56781;42.292;23.146;2022-12-01T12:51:53;10.13;;;2.67;;
69569;SDS011;56781;42.292;23.146;2022-12-01T12:54:35;12.93;;;3.13;;
69569;SDS011;56781;42.292;23.146;2022-12-01T12:57:33;11.82;;;2.88;;
69569;SDS011;56781;42.292;23.146;2022-12-01T13:00:06;15.40;;;3.63;;
69569;SDS011;56781;42.292;23.146;2022-12-01T13:02:40;15.52;;;4.28;;
69569;SDS011;56781;42.292;23.146;2022-12-01T13:05:13;9.77;;;2.37;;
69569;SDS011;56781;42.292;23.146;2022-12-01T13:10:21;4.63;;;1.50;;
69569;SDS011;56781;42.292;23.146;2022-12-01T13:15:55;7.88;;;2.53;;
69569;SDS011;56781;42.292;23.146;2022-12-01T13:21:16;5.18;;;1.75;;
69569;SDS011;56781;42.292;23.146;2022-12-01T13:23:46;3.28;;;1.05;;
69569;SDS011;56781;42.292;23.146;2022-12-01T13:26:16;6.15;;;1.88;;
69569;SDS011;56781;42.292;23.146;2022-12-01T13:28:49;3.25;;;1.08;;
69569;SDS011;56781;42.292;23.146;2022-12-01T13:31:20;5.40;;;1.30;;
69569;SDS011;56781;42.292;23.146;2022-12-01T13:33:55;6.32;;;1.58;;
69569;SDS011;56781;42.292;23.146;2022-12-01T13:36:25;5.88;;;2.03;;
69569;SDS011;56781;42.292;23.146;2022-12-01T13:39:20;5.78;;;2.17;;
69569;SDS011;56781;42.292;23.146;2022-12-01T13:42:05;2.42;;;0.90;;
69569;SDS011;56781;42.292;23.146;2022-12-01T13:44:56;11.20;;;4.53;;
69569;SDS011;56781;42.292;23.146;2022-12-01T13:47:53;9.20;;;3.78;;
69569;SDS011;56781;42.292;23.146;2022-12-01T14:09:04;10.25;;;3.25;;
69569;SDS011;56781;42.292;23.146;2022-12-01T14:11:40;12.87;;;4.53;;
69569;SDS011;56781;42.292;23.146;2022-12-01T14:14:20;6.85;;;2.50;;
69569;SDS011;56781;42.292;23.146;2022-12-01T14:16:55;8.23;;;2.72;;
69569;SDS011;56781;42.292;23.146;2022-12-01T14:19:41;19.08;;;5.13;;
69569;SDS011;56781;42.292;23.146;2022-12-01T14:27:56;11.13;;;3.25;;
69569;SDS011;56781;42.292;23.146;2022-12-01T14:38:46;5.17;;;2.03;;
69569;SDS011;56781;42.292;23.146;2022-12-01T14:41:25;11.95;;;4.35;;
69569;SDS011;56781;42.292;23.146;2022-12-01T14:43:56;5.53;;;2.60;;
69569;SDS011;56781;42.292;23.146;2022-12-01T14:46:32;7.03;;;2.97;;
69569;SDS011;56781;42.292;23.146;2022-12-01T14:49:09;4.28;;;1.63;;
69569;SDS011;56781;42.292;23.146;2022-12-01T14:51:40;2.90;;;0.97;;
69569;SDS011;56781;42.292;23.146;2022-12-01T14:54:16;5.97;;;2.20;;
69569;SDS011;56781;42.292;23.146;2022-12-01T14:56:50;4.80;;;1.88;;
69569;SDS011;56781;42.292;23.146;2022-12-01T14:59:22;8.55;;;3.28;;
69569;SDS011;56781;42.292;23.146;2022-12-01T15:01:54;7.35;;;2.85;;
69569;SDS011;56781;42.292;23.146;2022-12-01T15:04:29;7.07;;;2.33;;
69569;SDS011;56781;42.292;23.146;2022-12-01T15:06:58;7.40;;;2.70;;
69569;SDS011;56781;42.292;23.146;2022-12-01T15:09:25;8.13;;;2.78;;
69569;SDS011;56781;42.292;23.146;2022-12-01T15:12:02;3.47;;;1.13;;
69569;SDS011;56781;42.292;23.146;2022-12-01T15:14:37;5.82;;;1.83;;
69569;SDS011;56781;42.292;23.146;2022-12-01T15:20:29;5.43;;;1.77;;
69569;SDS011;56781;42.292;23.146;2022-12-01T15:22:56;4.88;;;1.73;;
69569;SDS011;56781;42.292;23.146;2022-12-01T15:25:25;6.35;;;2.08;;
69569;SDS011;56781;42.292;23.146;2022-12-01T15:28:03;6.68;;;2.92;;
69569;SDS011;56781;42.292;23.146;2022-12-01T15:30:46;2.97;;;0.90;;
69569;SDS011;56781;42.292;23.146;2022-12-01T15:33:19;4.47;;;1.67;;
69569;SDS011;56781;42.292;23.146;2022-12-01T15:36:02;4.90;;;1.77;;
69569;SDS011;56781;42.292;23.146;2022-12-01T15:38:30;2.80;;;1.20;;
69569;SDS011;56781;42.292;23.146;2022-12-01T15:41:00;3.70;;;1.35;;
69569;SDS011;56781;42.292;23.146;2022-12-01T15:43:56;4.43;;;1.50;;
69569;SDS011;56781;42.292;23.146;2022-12-01T15:46:27;9.10;;;2.65;;
69569;SDS011;56781;42.292;23.146;2022-12-01T15:49:08;5.00;;;1.45;;
69569;SDS011;56781;42.292;23.146;2022-12-01T15:51:45;3.55;;;1.30;;
69569;SDS011;56781;42.292;23.146;2022-12-01T15:54:16;7.30;;;2.97;;
69569;SDS011;56781;42.292;23.146;2022-12-01T15:56:55;9.33;;;4.10;;
69569;SDS011;56781;42.292;23.146;2022-12-01T15:59:26;7.90;;;3.30;;
69569;SDS011;56781;42.292;23.146;2022-12-01T16:02:06;8.68;;;3.95;;
69569;SDS011;56781;42.292;23.146;2022-12-01T16:04:45;8.20;;;3.20;;
69569;SDS011;56781;42.292;23.146;2022-12-01T16:07:14;13.40;;;6.00;;
69569;SDS011;56781;42.292;23.146;2022-12-01T16:09:42;10.37;;;4.40;;
69569;SDS011;56781;42.292;23.146;2022-12-01T16:12:23;3.40;;;1.67;;
69569;SDS011;56781;42.292;23.146;2022-12-01T16:15:00;4.25;;;1.95;;
69569;SDS011;56781;42.292;23.146;2022-12-01T16:17:47;3.80;;;1.40;;
69569;SDS011;56781;42.292;23.146;2022-12-01T16:20:30;3.60;;;1.20;;
69569;SDS011;56781;42.292;23.146;2022-12-01T16:23:08;3.87;;;1.30;;
69569;SDS011;56781;42.292;23.146;2022-12-01T16:25:38;4.40;;;1.60;;
69569;SDS011;56781;42.292;23.146;2022-12-01T16:28:20;3.20;;;0.90;;
69569;SDS011;56781;42.292;23.146;2022-12-01T16:30:49;1.92;;;0.60;;
69569;SDS011;56781;42.292;23.146;2022-12-01T16:33:20;2.35;;;0.80;;
69569;SDS011;56781;42.292;23.146;2022-12-01T16:35:49;2.40;;;0.60;;
69569;SDS011;56781;42.292;23.146;2022-12-01T16:38:18;2.90;;;1.08;;
69569;SDS011;56781;42.292;23.146;2022-12-01T16:40:57;2.80;;;1.10;;
69569;SDS011;56781;42.292;23.146;2022-12-01T16:43:26;3.30;;;1.20;;
69569;SDS011;56781;42.292;23.146;2022-12-01T16:45:58;2.53;;;0.90;;
69569;SDS011;56781;42.292;23.146;2022-12-01T16:48:28;2.57;;;1.10;;
69569;SDS011;56781;42.292;23.146;2022-12-01T16:50:56;1.45;;;0.60;;
69569;SDS011;56781;42.292;23.146;2022-12-01T16:53:32;1.90;;;0.60;;
69569;SDS011;56781;42.292;23.146;2022-12-01T16:56:00;1.70;;;0.60;;
69569;SDS011;56781;42.292;23.146;2022-12-01T16:58:30;2.63;;;0.90;;
69569;SDS011;56781;42.292;23.146;2022-12-01T17:00:59;4.13;;;1.30;;
69569;SDS011;56781;42.292;23.146;2022-12-01T17:03:26;4.25;;;1.17;;
69569;SDS011;56781;42.292;23.146;2022-12-01T17:05:54;6.43;;;1.48;;
69569;SDS011;56781;42.292;23.146;2022-12-01T17:08:24;4.32;;;1.00;;
69569;SDS011;56781;42.292;23.146;2022-12-01T17:10:51;2.10;;;0.80;;
69569;SDS011;56781;42.292;23.146;2022-12-01T17:13:19;2.93;;;1.13;;
69569;SDS011;56781;42.292;23.146;2022-12-01T17:15:51;2.28;;;1.00;;
69569;SDS011;56781;42.292;23.146;2022-12-01T17:18:20;2.58;;;1.05;;
69569;SDS011;56781;42.292;23.146;2022-12-01T17:21:01;2.83;;;1.20;;